createdAt,value
2018-08-18T00:01:53.104Z,94892.00
2018-08-18T00:04:32.967Z,94896.00
2018-08-18T00:07:05.055Z,94897.00
2018-08-18T00:09:36.904Z,94896.00
2018-08-18T00:12:15.230Z,94900.00
2018-08-18T00:14:47.292Z,94907.00
2018-08-18T00:17:19.788Z,94909.00
2018-08-18T00:19:52.954Z,94905.00
2018-08-18T00:22:25.148Z,94910.00
2018-08-18T00:24:58.655Z,94913.00
2018-08-18T00:27:30.634Z,94913.00
2018-08-18T00:30:08.358Z,94920.00
2018-08-18T00:32:40.943Z,94915.00
2018-08-18T00:35:12.846Z,94916.00
2018-08-18T00:37:44.714Z,94912.00
2018-08-18T00:40:17.090Z,94912.00
2018-08-18T00:42:49.093Z,94919.00
2018-08-18T00:45:21.349Z,94911.00
2018-08-18T00:47:54.299Z,94912.00
2018-08-18T00:50:39.834Z,94905.00
2018-08-18T00:53:14.550Z,94903.00
2018-08-18T00:55:46.580Z,94901.00
2018-08-18T00:58:28.173Z,94902.00
2018-08-18T01:01:05.841Z,94900.00
2018-08-18T01:03:44.838Z,94896.00
2018-08-18T01:06:34.849Z,94894.00
2018-08-18T01:09:09.792Z,94895.00
2018-08-18T01:11:42.861Z,94893.00
2018-08-18T01:14:19.797Z,94892.00
2018-08-18T01:16:52.869Z,94894.00
2018-08-18T01:19:24.861Z,94905.00
2018-08-18T01:21:58.952Z,94901.00
2018-08-18T01:24:30.967Z,94904.00
2018-08-18T01:27:04.167Z,94899.00
2018-08-18T01:29:37.018Z,94899.00
2018-08-18T01:32:08.995Z,94900.00
2018-08-18T01:34:40.844Z,94907.00
2018-08-18T01:37:19.508Z,94900.00
2018-08-18T01:39:55.356Z,94904.00
2018-08-18T01:42:27.522Z,94905.00
2018-08-18T01:44:59.309Z,94906.00
2018-08-18T01:47:31.357Z,94909.00
2018-08-18T01:50:08.129Z,94911.00
2018-08-18T01:52:41.032Z,94914.00
2018-08-18T01:55:13.625Z,94916.00
2018-08-18T01:57:45.739Z,94918.00
2018-08-18T02:00:28.732Z,94917.00
2018-08-18T02:03:01.560Z,94912.00
2018-08-18T02:05:33.432Z,94912.00
2018-08-18T02:08:05.622Z,94911.00
2018-08-18T02:10:37.426Z,94912.00
2018-08-18T02:13:09.591Z,94912.00
2018-08-18T02:15:41.386Z,94910.00
2018-08-18T02:18:13.423Z,94914.00
2018-08-18T02:20:45.430Z,94910.00
2018-08-18T02:23:17.443Z,94921.00
2018-08-18T02:25:49.755Z,94918.00
2018-08-18T02:28:31.390Z,94918.00
2018-08-18T02:31:03.295Z,94915.00
2018-08-18T02:33:36.584Z,94911.00
2018-08-18T02:36:09.095Z,94898.00
2018-08-18T02:38:45.137Z,94904.00
2018-08-18T02:41:17.008Z,94895.00
2018-08-18T02:43:49.074Z,94895.00
2018-08-18T02:46:34.875Z,94902.00
2018-08-18T02:49:07.377Z,94903.00
2018-08-18T02:51:39.411Z,94903.00
2018-08-18T02:54:11.102Z,94903.00
2018-08-18T02:56:43.615Z,94904.00
2018-08-18T02:59:15.415Z,94912.00
2018-08-18T03:01:47.855Z,94915.00
2018-08-18T03:04:20.206Z,94917.00
2018-08-18T03:06:52.118Z,94914.00
2018-08-18T03:09:23.926Z,94919.00
2018-08-18T03:11:55.920Z,94919.00
2018-08-18T03:14:27.994Z,94921.00
2018-08-18T03:16:59.888Z,94925.00
2018-08-18T03:19:31.821Z,94928.00
2018-08-18T03:22:03.721Z,94929.00
2018-08-18T03:24:35.657Z,94927.00
2018-08-18T03:27:07.718Z,94927.00
2018-08-18T03:29:44.525Z,94928.00
2018-08-18T03:32:16.209Z,94935.00
2018-08-18T03:34:48.095Z,94946.00
2018-08-18T03:37:29.880Z,94951.00
2018-08-18T03:40:01.878Z,94945.00
2018-08-18T03:42:41.417Z,94954.00
2018-08-18T03:45:13.554Z,94951.00
2018-08-18T03:47:45.556Z,94954.00
2018-08-18T03:50:18.821Z,94960.00
2018-08-18T03:52:51.725Z,94957.00
2018-08-18T03:55:37.778Z,94962.00
2018-08-18T03:58:09.760Z,94969.00
2018-08-18T04:00:43.068Z,94971.00
2018-08-18T04:03:15.069Z,94976.00
2018-08-18T04:05:47.466Z,94977.00
2018-08-18T04:08:19.977Z,94983.00
2018-08-18T04:10:52.725Z,94985.00
2018-08-18T04:13:24.157Z,94983.00
2018-08-18T04:15:56.321Z,94984.00
2018-08-18T04:18:28.731Z,94984.00
2018-08-18T04:21:00.826Z,94981.00
2018-08-18T04:23:32.707Z,94980.00
2018-08-18T04:26:04.465Z,94983.00
2018-08-18T04:28:36.279Z,94978.00
2018-08-18T04:31:08.492Z,94984.00
2018-08-18T04:33:40.316Z,94985.00
2018-08-18T04:36:12.128Z,94982.00
2018-08-18T04:38:44.117Z,94985.00
2018-08-18T04:41:16.450Z,94987.00
2018-08-18T04:43:48.695Z,94991.00
2018-08-18T04:46:20.535Z,94990.00
2018-08-18T04:48:52.549Z,94988.00
2018-08-18T04:51:25.200Z,94980.00
2018-08-18T04:53:57.590Z,94982.00
2018-08-18T04:56:29.503Z,94979.00
2018-08-18T04:59:01.479Z,94982.00
2018-08-18T05:01:33.880Z,94979.00
2018-08-18T05:04:10.470Z,94990.00
2018-08-18T05:06:43.685Z,95001.00
2018-08-18T05:09:16.034Z,94999.00
2018-08-18T05:11:48.810Z,95005.00
2018-08-18T05:14:21.347Z,94995.00
2018-08-18T05:16:53.295Z,94995.00
2018-08-18T05:19:25.399Z,95003.00
2018-08-18T05:21:57.440Z,95007.00
2018-08-18T05:24:32.319Z,95006.00
2018-08-18T05:27:09.606Z,95009.00
2018-08-18T05:29:41.873Z,95012.00
2018-08-18T05:32:13.449Z,95018.00
2018-08-18T05:34:45.585Z,95013.00
2018-08-18T05:37:18.095Z,95014.00
2018-08-18T05:39:49.829Z,95013.00
2018-08-18T05:42:22.282Z,95007.00
2018-08-18T05:44:55.462Z,95014.00
2018-08-18T05:47:27.575Z,95015.00
2018-08-18T05:49:59.780Z,95020.00
2018-08-18T05:52:32.913Z,95021.00
2018-08-18T05:55:05.008Z,95019.00
2018-08-18T05:57:37.135Z,95014.00
2018-08-18T06:00:14.513Z,95013.00
2018-08-18T06:02:52.016Z,95014.00
2018-08-18T06:05:26.610Z,95014.00
2018-08-18T06:07:59.954Z,95018.00
2018-08-18T06:10:31.689Z,95014.00
2018-08-18T06:13:08.865Z,95017.00
2018-08-18T06:15:41.207Z,95015.00
2018-08-18T06:18:14.163Z,95013.00
2018-08-18T06:20:46.382Z,95004.00
2018-08-18T06:23:19.423Z,95001.00
2018-08-18T06:25:51.622Z,95002.00
2018-08-18T06:28:24.042Z,94996.00
2018-08-18T06:30:55.969Z,94990.00
2018-08-18T06:33:28.057Z,94993.00
2018-08-18T06:36:01.691Z,94999.00
2018-08-18T06:38:34.038Z,94999.00
2018-08-18T06:41:06.374Z,94997.00
2018-08-18T06:43:38.114Z,95002.00
2018-08-18T06:46:10.388Z,94999.00
2018-08-18T06:48:43.195Z,95000.00
2018-08-18T06:51:14.962Z,94998.00
2018-08-18T06:53:47.835Z,95002.00
2018-08-18T06:56:20.379Z,95001.00
2018-08-18T06:58:53.306Z,94997.00
2018-08-18T07:01:25.631Z,94997.00
2018-08-18T07:03:58.054Z,95001.00
2018-08-18T07:06:30.158Z,95001.00
2018-08-18T07:09:01.911Z,94996.00
2018-08-18T07:11:33.537Z,94997.00
2018-08-18T07:14:05.947Z,94995.00
2018-08-18T07:16:38.370Z,94996.00
2018-08-18T07:19:10.472Z,95000.00
2018-08-18T07:21:42.637Z,94999.00
2018-08-18T07:24:14.900Z,95002.00
2018-08-18T07:26:46.938Z,95006.00
2018-08-18T07:29:20.081Z,95006.00
2018-08-18T07:31:52.405Z,95004.00
2018-08-18T07:34:24.706Z,95004.00
2018-08-18T07:36:57.332Z,94999.00
2018-08-18T07:39:29.992Z,95002.00
2018-08-18T07:42:02.340Z,95006.00
2018-08-18T07:44:34.360Z,95005.00
2018-08-18T07:47:06.748Z,95009.00
2018-08-18T07:49:38.657Z,95005.00
2018-08-18T07:52:10.849Z,95008.00
2018-08-18T07:54:42.867Z,95011.00
2018-08-18T07:57:15.287Z,95015.00
2018-08-18T07:59:47.627Z,95014.00
2018-08-18T08:02:19.978Z,95012.00
2018-08-18T08:04:52.363Z,95009.00
2018-08-18T08:07:24.996Z,95004.00
2018-08-18T08:09:58.094Z,95010.00
2018-08-18T08:12:30.103Z,95007.00
2018-08-18T08:15:02.058Z,95009.00
2018-08-18T08:17:34.362Z,95002.00
2018-08-18T08:20:07.385Z,95001.00
2018-08-18T08:22:41.073Z,94995.00
2018-08-18T08:25:13.270Z,95001.00
2018-08-18T08:27:49.569Z,94996.00
2018-08-18T08:30:23.178Z,95003.00
2018-08-18T08:32:55.753Z,95000.00
2018-08-18T08:35:28.145Z,95003.00
2018-08-18T08:38:00.915Z,95000.00
2018-08-18T08:40:33.942Z,94995.00
2018-08-18T08:43:06.548Z,94990.00
2018-08-18T08:45:39.347Z,94994.00
2018-08-18T08:48:11.645Z,94995.00
2018-08-18T08:50:45.052Z,94992.00
2018-08-18T08:53:17.264Z,94992.00
2018-08-18T08:55:49.619Z,94989.00
2018-08-18T08:58:23.029Z,94989.00
2018-08-18T09:00:56.024Z,94994.00
2018-08-18T09:03:28.805Z,94982.00
2018-08-18T09:06:01.018Z,94988.00
2018-08-18T09:08:33.687Z,94985.00
2018-08-18T09:11:06.991Z,94983.00
2018-08-18T09:13:45.677Z,94987.00
2018-08-18T09:16:18.133Z,94982.00
2018-08-18T09:18:50.806Z,94982.00
2018-08-18T09:21:23.055Z,94978.00
2018-08-18T09:23:56.027Z,94982.00
2018-08-18T09:26:28.585Z,94975.00
2018-08-18T09:29:00.809Z,94973.00
2018-08-18T09:31:33.381Z,94977.00
2018-08-18T09:34:05.818Z,94970.00
2018-08-18T09:36:38.421Z,94979.00
2018-08-18T09:39:17.678Z,94975.00
2018-08-18T09:41:50.599Z,94968.00
2018-08-18T09:44:27.382Z,94970.00
2018-08-18T09:47:00.138Z,94965.00
2018-08-18T09:49:33.072Z,94957.00
2018-08-18T09:52:06.018Z,94965.00
2018-08-18T09:54:38.079Z,94966.00
2018-08-18T09:57:10.495Z,94961.00
2018-08-18T09:59:43.680Z,94968.00
2018-08-18T10:02:15.986Z,94958.00
2018-08-18T10:04:48.084Z,94964.00
2018-08-18T10:07:20.431Z,94969.00
2018-08-18T10:09:52.865Z,94954.00
2018-08-18T10:12:25.172Z,94962.00
2018-08-18T10:14:57.862Z,94959.00
2018-08-18T10:17:30.483Z,94953.00
2018-08-18T10:20:03.636Z,94952.00
2018-08-18T10:22:36.348Z,94944.00
2018-08-18T10:25:08.840Z,94941.00
2018-08-18T10:27:41.172Z,94944.00
2018-08-18T10:30:14.544Z,94934.00
2018-08-18T10:32:51.054Z,94941.00
2018-08-18T10:35:29.563Z,94940.00
2018-08-18T10:38:04.462Z,94936.00
2018-08-18T10:40:36.461Z,94938.00
2018-08-18T10:43:08.719Z,94939.00
2018-08-18T10:45:40.987Z,94932.00
2018-08-18T10:48:13.303Z,94933.00
2018-08-18T10:52:00.468Z,94936.00
2018-08-18T10:54:33.067Z,94936.00
2018-08-18T10:57:14.169Z,94933.00
2018-08-18T10:59:52.272Z,94930.00
2018-08-18T11:02:35.851Z,94932.00
2018-08-18T11:05:09.589Z,94931.00
2018-08-18T11:07:42.163Z,94934.00
2018-08-18T11:10:14.542Z,94939.00
2018-08-18T11:12:46.764Z,94932.00
2018-08-18T11:15:19.125Z,94929.00
2018-08-18T11:17:51.371Z,94925.00
2018-08-18T11:20:24.342Z,94919.00
2018-08-18T11:23:01.652Z,94913.00
2018-08-18T11:25:37.421Z,94919.00
2018-08-18T11:28:10.986Z,94911.00
2018-08-18T11:30:43.176Z,94917.00
2018-08-18T11:33:47.316Z,94919.00
2018-08-18T11:36:19.662Z,94911.00
2018-08-18T11:38:51.705Z,94909.00
2018-08-18T11:41:24.367Z,94902.00
2018-08-18T11:43:56.742Z,94908.00
2018-08-18T11:46:31.465Z,94897.00
2018-08-18T11:49:04.375Z,94900.00
2018-08-18T11:51:42.870Z,94895.00
2018-08-18T11:54:15.717Z,94897.00
2018-08-18T11:56:53.603Z,94897.00
2018-08-18T11:59:25.950Z,94888.00
2018-08-18T12:01:58.879Z,94892.00
2018-08-18T12:04:31.017Z,94881.00
2018-08-18T12:07:03.306Z,94882.00
2018-08-18T12:09:35.558Z,94876.00
2018-08-18T12:12:08.058Z,94883.00
2018-08-18T12:14:40.239Z,94877.00
2018-08-18T12:17:12.467Z,94872.00
2018-08-18T12:19:46.744Z,94867.00
2018-08-18T12:22:19.285Z,94870.00
2018-08-18T12:24:56.433Z,94870.00
2018-08-18T12:27:30.233Z,94863.00
2018-08-18T12:30:02.970Z,94861.00
2018-08-18T12:32:35.251Z,94866.00
2018-08-18T12:35:08.077Z,94874.00
2018-08-18T12:37:40.583Z,94868.00
2018-08-18T12:40:13.158Z,94867.00
2018-08-18T12:42:46.446Z,94866.00
2018-08-18T12:45:18.664Z,94862.00
2018-08-18T12:48:05.178Z,94851.00
2018-08-18T12:50:38.633Z,94854.00
2018-08-18T12:53:10.813Z,94857.00
2018-08-18T12:55:47.472Z,94859.00
2018-08-18T12:58:19.947Z,94849.00
2018-08-18T13:00:52.377Z,94853.00
2018-08-18T13:03:24.604Z,94849.00
2018-08-18T13:05:57.197Z,94845.00
2018-08-18T13:08:29.131Z,94841.00
2018-08-18T13:11:01.169Z,94841.00
2018-08-18T13:13:33.643Z,94834.00
2018-08-18T13:16:07.369Z,94839.00
2018-08-18T13:18:40.476Z,94827.00
2018-08-18T13:21:12.359Z,94839.00
2018-08-18T13:23:44.461Z,94839.00
2018-08-18T13:26:16.838Z,94836.00
2018-08-18T13:28:53.548Z,94829.00
2018-08-18T13:31:31.063Z,94828.00
2018-08-18T13:34:03.259Z,94831.00
2018-08-18T13:36:37.884Z,94828.00
2018-08-18T13:39:16.679Z,94836.00
2018-08-18T13:41:51.097Z,94829.00
2018-08-18T13:44:30.028Z,94842.00
2018-08-18T13:47:02.591Z,94841.00
2018-08-18T13:49:35.636Z,94842.00
2018-08-18T13:52:07.751Z,94832.00
2018-08-18T13:54:44.230Z,94827.00
2018-08-18T13:57:20.533Z,94819.00
2018-08-18T13:59:52.917Z,94823.00
2018-08-18T14:02:24.978Z,94822.00
2018-08-18T14:04:57.343Z,94821.00
2018-08-18T14:07:31.232Z,94811.00
2018-08-18T14:10:04.033Z,94816.00
2018-08-18T14:12:36.216Z,94821.00
2018-08-18T14:15:08.341Z,94817.00
2018-08-18T14:17:40.830Z,94826.00
2018-08-18T14:20:13.315Z,94827.00
2018-08-18T14:22:45.825Z,94815.00
2018-08-18T14:25:17.807Z,94816.00
2018-08-18T14:27:54.651Z,94812.00
2018-08-18T14:30:26.894Z,94821.00
2018-08-18T14:32:59.182Z,94816.00
2018-08-18T14:35:31.309Z,94823.00
2018-08-18T14:38:03.592Z,94825.00
2018-08-18T14:40:35.760Z,94815.00
2018-08-18T14:43:08.394Z,94817.00
2018-08-18T14:45:41.069Z,94815.00
2018-08-18T14:48:13.332Z,94804.00
2018-08-18T14:50:45.737Z,94814.00
2018-08-18T14:53:22.953Z,94809.00
2018-08-18T14:55:55.727Z,94809.00
2018-08-18T14:58:32.789Z,94814.00
2018-08-18T15:01:09.597Z,94817.00
2018-08-18T15:03:42.618Z,94817.00
2018-08-18T15:06:15.450Z,94811.00
2018-08-18T15:08:47.724Z,94813.00
2018-08-18T15:11:20.155Z,94811.00
2018-08-18T15:13:52.688Z,94812.00
2018-08-18T15:16:25.383Z,94813.00
2018-08-18T15:18:58.055Z,94803.00
2018-08-18T15:21:30.340Z,94809.00
2018-08-18T15:24:02.844Z,94805.00
2018-08-18T15:26:35.269Z,94810.00
2018-08-18T15:29:11.529Z,94809.00
2018-08-18T15:31:43.830Z,94808.00
2018-08-18T15:34:16.076Z,94804.00
2018-08-18T15:36:48.335Z,94806.00
2018-08-18T15:39:20.633Z,94801.00
2018-08-18T15:41:54.221Z,94815.00
2018-08-18T15:44:26.569Z,94812.00
2018-08-18T15:46:59.262Z,94824.00
2018-08-18T15:49:31.644Z,94823.00
2018-08-18T15:52:03.658Z,94823.00
2018-08-18T15:54:35.802Z,94824.00
2018-08-18T15:57:07.971Z,94827.00
2018-08-18T15:59:40.414Z,94831.00
2018-08-18T16:02:13.362Z,94827.00
2018-08-18T16:04:45.676Z,94833.00
2018-08-18T16:07:18.324Z,94836.00
2018-08-18T16:09:50.950Z,94836.00
2018-08-18T16:12:23.271Z,94832.00
2018-08-18T16:14:55.846Z,94834.00
2018-08-18T16:17:28.174Z,94830.00
2018-08-18T16:20:00.655Z,94837.00
2018-08-18T16:22:32.962Z,94843.00
2018-08-18T16:25:05.394Z,94852.00
2018-08-18T16:27:38.695Z,94848.00
2018-08-18T16:30:10.666Z,94854.00
2018-08-18T16:32:42.969Z,94849.00
2018-08-18T16:35:15.264Z,94862.00
2018-08-18T16:37:47.545Z,94863.00
2018-08-18T16:40:20.504Z,94876.00
2018-08-18T16:42:52.872Z,94877.00
2018-08-18T16:45:25.076Z,94878.00
2018-08-18T16:47:57.263Z,94877.00
2018-08-18T16:50:29.653Z,94883.00
2018-08-18T16:53:05.493Z,94888.00
2018-08-18T16:55:38.960Z,94880.00
2018-08-18T16:58:11.779Z,94885.00
2018-08-18T17:01:01.671Z,94890.00
2018-08-18T17:03:35.714Z,94886.00
2018-08-18T17:06:08.128Z,94891.00
2018-08-18T17:08:40.183Z,94896.00
2018-08-18T17:11:12.376Z,94894.00
2018-08-18T17:13:44.850Z,94900.00
2018-08-18T17:16:17.455Z,94904.00
2018-08-18T17:18:49.532Z,94911.00
2018-08-18T17:21:22.036Z,94911.00
2018-08-18T17:23:54.399Z,94913.00
2018-08-18T17:26:27.424Z,94914.00
2018-08-18T17:28:59.594Z,94919.00
2018-08-18T17:31:31.861Z,94918.00
2018-08-18T17:34:04.076Z,94920.00
2018-08-18T17:36:36.541Z,94921.00
2018-08-18T17:39:09.219Z,94924.00
2018-08-18T17:41:42.052Z,94924.00
2018-08-18T17:44:14.346Z,94931.00
2018-08-18T17:46:53.667Z,94935.00
2018-08-18T17:49:27.378Z,94938.00
2018-08-18T17:52:06.424Z,94949.00
2018-08-18T17:54:39.526Z,94948.00
2018-08-18T17:57:11.751Z,94946.00
2018-08-18T17:59:43.485Z,94952.00
2018-08-18T18:02:17.226Z,94952.00
2018-08-18T18:04:56.227Z,94963.00
2018-08-18T18:07:28.293Z,94966.00
2018-08-18T18:10:00.939Z,94965.00
2018-08-18T18:12:34.861Z,94966.00
2018-08-18T18:15:21.688Z,94973.00
2018-08-18T18:17:54.734Z,94969.00
2018-08-18T18:20:30.293Z,94974.00
2018-08-18T18:23:02.681Z,94982.00
2018-08-18T18:25:35.074Z,94982.00
2018-08-18T18:28:07.111Z,94984.00
2018-08-18T18:30:41.146Z,94984.00
2018-08-18T18:33:13.613Z,94995.00
2018-08-18T18:35:45.704Z,94994.00
2018-08-18T18:38:18.095Z,94991.00
2018-08-18T18:40:50.300Z,94989.00
2018-08-18T18:43:22.418Z,94990.00
2018-08-18T18:45:55.648Z,95003.00
2018-08-18T18:48:28.328Z,95000.00
2018-08-18T18:51:00.745Z,95004.00
2018-08-18T18:53:50.167Z,95009.00
2018-08-18T18:56:22.463Z,95011.00
2018-08-18T18:58:54.796Z,95002.00
2018-08-18T19:01:26.880Z,94997.00
2018-08-18T19:03:59.010Z,95000.00
2018-08-18T19:06:31.267Z,95010.00
2018-08-18T19:09:03.543Z,95005.00
2018-08-18T19:11:36.165Z,95006.00
2018-08-18T19:14:08.707Z,95008.00
2018-08-18T19:16:40.786Z,95008.00
2018-08-18T19:19:13.073Z,95008.00
2018-08-18T19:21:45.167Z,95017.00
2018-08-18T19:24:23.040Z,95030.00
2018-08-18T19:27:00.181Z,95030.00
2018-08-18T19:29:32.269Z,95022.00
2018-08-18T19:32:04.411Z,95022.00
2018-08-18T19:34:36.488Z,95023.00
2018-08-18T19:37:09.815Z,95025.00
2018-08-18T19:39:42.753Z,95024.00
2018-08-18T19:42:17.089Z,95027.00
2018-08-18T19:44:51.905Z,95026.00
2018-08-18T19:47:28.801Z,95029.00
2018-08-18T19:50:01.932Z,95030.00
2018-08-18T19:52:34.510Z,95027.00
2018-08-18T19:55:07.027Z,95031.00
2018-08-18T19:57:40.035Z,95031.00
2018-08-18T20:00:22.001Z,95036.00
2018-08-18T20:02:59.842Z,95040.00
2018-08-18T20:05:32.141Z,95040.00
2018-08-18T20:08:04.576Z,95042.00
2018-08-18T20:10:45.479Z,95043.00
2018-08-18T20:13:18.408Z,95046.00
2018-08-18T20:15:54.078Z,95045.00
2018-08-18T20:18:26.483Z,95045.00
2018-08-18T20:21:00.799Z,95048.00
2018-08-18T20:23:33.657Z,95054.00
2018-08-18T20:26:05.874Z,95050.00
2018-08-18T20:28:39.337Z,95055.00
2018-08-18T20:31:11.608Z,95049.00
2018-08-18T20:33:43.892Z,95051.00
2018-08-18T20:36:16.042Z,95050.00
2018-08-18T20:38:48.008Z,95051.00
2018-08-18T20:41:20.269Z,95054.00
2018-08-18T20:43:52.146Z,95046.00
2018-08-18T20:46:24.124Z,95050.00
2018-08-18T20:48:56.114Z,95057.00
2018-08-18T20:51:33.385Z,95053.00
2018-08-18T20:54:05.291Z,95064.00
2018-08-18T20:56:37.375Z,95067.00
2018-08-18T20:59:09.387Z,95071.00
2018-08-18T21:01:41.166Z,95077.00
2018-08-18T21:04:13.703Z,95072.00
2018-08-18T21:06:45.861Z,95073.00
2018-08-18T21:09:31.955Z,95077.00
2018-08-18T21:12:04.363Z,95078.00
2018-08-18T21:14:36.256Z,95081.00
2018-08-18T21:17:08.314Z,95085.00
2018-08-18T21:19:40.268Z,95081.00
2018-08-18T21:22:15.478Z,95082.00
2018-08-18T21:24:47.579Z,95085.00
2018-08-18T21:27:20.083Z,95083.00
2018-08-18T21:29:53.544Z,95082.00
2018-08-18T21:32:27.093Z,95084.00
2018-08-18T21:35:00.140Z,95090.00
2018-08-18T21:37:32.473Z,95087.00
2018-08-18T21:40:05.205Z,95089.00
2018-08-18T21:42:37.170Z,95087.00
2018-08-18T21:45:12.694Z,95089.00
2018-08-18T21:47:44.736Z,95086.00
2018-08-18T21:50:17.222Z,95083.00
2018-08-18T21:52:49.169Z,95092.00
2018-08-18T21:55:21.167Z,95089.00
2018-08-18T21:57:58.612Z,95088.00
2018-08-18T22:00:35.842Z,95093.00
2018-08-18T22:03:08.109Z,95093.00
2018-08-18T22:05:40.266Z,95091.00
2018-08-18T22:08:12.789Z,95097.00
2018-08-18T22:10:50.687Z,95097.00
2018-08-18T22:13:22.805Z,95094.00
2018-08-18T22:15:55.126Z,95090.00
2018-08-18T22:18:27.630Z,95089.00
2018-08-18T22:21:00.765Z,95099.00
2018-08-18T22:23:33.114Z,95088.00
2018-08-18T22:26:09.272Z,95095.00
2018-08-18T22:28:41.539Z,95090.00
2018-08-18T22:31:13.831Z,95088.00
2018-08-18T22:33:46.058Z,95084.00
2018-08-18T22:36:18.113Z,95093.00
2018-08-18T22:38:50.070Z,95091.00
2018-08-18T22:41:22.294Z,95093.00
2018-08-18T22:43:54.658Z,95096.00
2018-08-18T22:46:26.840Z,95089.00
2018-08-18T22:48:58.707Z,95089.00
2018-08-18T22:51:30.506Z,95089.00
2018-08-18T22:54:02.972Z,95088.00
2018-08-18T22:56:36.454Z,95086.00
2018-08-18T22:59:09.613Z,95085.00
2018-08-18T23:01:41.875Z,95083.00
2018-08-18T23:04:32.274Z,95080.00
2018-08-18T23:07:06.232Z,95083.00
2018-08-18T23:09:38.459Z,95083.00
2018-08-18T23:12:10.857Z,95087.00
2018-08-18T23:14:43.106Z,95091.00
2018-08-18T23:17:15.990Z,95092.00
2018-08-18T23:19:48.549Z,95093.00
2018-08-18T23:22:40.428Z,95090.00
2018-08-18T23:25:12.424Z,95088.00
2018-08-18T23:27:44.082Z,95090.00
2018-08-18T23:30:19.770Z,95090.00
2018-08-18T23:32:51.916Z,95098.00
2018-08-18T23:35:28.160Z,95100.00
2018-08-18T23:38:00.382Z,95094.00
2018-08-18T23:40:32.324Z,95098.00
2018-08-18T23:43:04.939Z,95095.00
2018-08-18T23:45:42.033Z,95100.00
2018-08-18T23:48:15.125Z,95096.00
2018-08-18T23:50:47.284Z,95093.00
2018-08-18T23:53:19.710Z,95090.00
2018-08-18T23:55:58.274Z,95084.00
2018-08-18T23:58:30.887Z,95082.00
